Legend :    VFR   Marginal VFR   IFR   Intensive IFR   Very Intensive IFR
Visi :
Ceiling :
>= 8 km
>= 3000ft
5 to 8 km
1000 to 3000 ft
1500m to 5 km
500 to 1000 ft
800 to 1500m
200 to 500 ft
< 800m
< 200 ft
Symbols :   Thunderstorms  Fog  Heavy snow  Heavy precipitations  Wind > 20 kt






- Airport Elevation : 1333 ft
- IATA code : ICT


KICT - Wichita Mid Continent

CURRENT METAR :
  • 090953Z 18018G23KT 10SM BKN150 BKN200 12/03 A3001 RMK AO2 PK WND 19027/0939 SLP157 T01170033

EXPIRED METARs :
  • 090853Z 17018G26KT 10SM CLR 12/02 A3003 RMK AO2 PK WND 17029/0813 SLP162 T01170017 58021
  • 090753Z 17019G30KT 10SM BKN150 BKN200 12/01 A3005 RMK AO2 PK WND 17030/0750 SLP170 T01220011

TAF KICT
Valid from the 09 at 06:00 until the 10 at 06:00 UTC


090523Z 0906/1006 17020G28KT P6SM BKN150 WS020/20050KT
FM090900 18018G26KT P6SM SCT015 BKN080 WS020/20050KT
FM091400 18020G28KT P6SM SCT015 BKN120
TEMPO 0914/0916 BKN015
FM091800 19021G30KT P6SM SCT040
FM092100 18023G32KT P6SM BKN080
FM100300 18021G29KT P6SM BKN150 WS020/19050KT
KZKC FIR / North America


LOGIN :  

Disclaimer |     EN      FR      IT 



MET'MAP, your aeronautical weather chart ! - Copyright ORBIFLY December 2007 - Disclaimer


ORBIFLY MET'MAP TEAM :

Programming & Development : Alexandra Zaïnal
Concept & original design : Baudouin d'Aumeries
Assistance for programming : Marc-Olivier Méhu
Technical & hardware support : Manuel Goepfert

Contact : metmap@orbifly.com




SOURCES & CREDITS :

   NOAA       Earth
Advisory